Time;durP1;ratioP1;P1;durP2;ratioP2;P2;SDS_P1;SDS_P2;PMS_P1;PMS_P2;Temp;Humidity;BMP_temperature;BMP_pressure;BME280_temperature;BME280_humidity;BME280_pressure;Samples;Min_cycle;Max_cycle;Signal;HPM_P1;HPM_P2
2023/09/08 00:01:06;;;;;;;8.77;7.10;;;;;;;15.58;100.00;100693.50;4996534;28;20204;-72
2023/09/08 00:03:32;;;;;;;7.90;6.50;;;;;;;15.54;100.00;100689.03;5000671;28;20478;-72
2023/09/08 00:05:59;;;;;;;8.53;6.77;;;;;;;15.53;100.00;100680.13;4998657;28;20211;-75
2023/09/08 00:08:25;;;;;;;10.00;6.67;;;;;;;15.57;100.00;100695.25;5002537;28;20201;-72
2023/09/08 00:10:52;;;;;;;8.10;6.50;;;;;;;15.44;100.00;100696.19;5002000;28;20710;-73
2023/09/08 00:13:18;;;;;;;9.53;6.87;;;;;;;15.31;100.00;100689.09;5003101;28;20282;-72
2023/09/08 00:15:45;;;;;;;8.97;6.63;;;;;;;15.28;100.00;100689.09;5002041;28;20366;-73
2023/09/08 00:18:11;;;;;;;8.97;6.87;;;;;;;15.21;100.00;100692.63;5001506;28;21283;-73
2023/09/08 00:20:38;;;;;;;10.80;6.77;;;;;;;15.16;100.00;100689.09;4996883;28;20212;-72
2023/09/08 00:23:04;;;;;;;8.70;6.83;;;;;;;15.09;100.00;100688.19;5000867;28;20279;-72
2023/09/08 00:25:31;;;;;;;9.30;6.83;;;;;;;15.09;100.00;100677.53;4995831;28;20258;-77
2023/09/08 00:27:57;;;;;;;11.17;7.20;;;;;;;15.18;100.00;100687.31;4999234;28;20204;-75
2023/09/08 00:30:24;;;;;;;10.83;6.63;;;;;;;15.19;100.00;100684.63;5003341;28;20259;-72
2023/09/08 00:32:50;;;;;;;10.10;6.10;;;;;;;15.27;100.00;100682.88;4999824;28;20234;-74
2023/09/08 00:35:17;;;;;;;8.53;7.13;;;;;;;15.34;100.00;100678.41;5001218;28;20212;-72
2023/09/08 00:37:43;;;;;;;10.23;6.87;;;;;;;15.41;100.00;100674.84;5001755;28;20629;-73
2023/09/08 00:40:10;;;;;;;9.33;6.40;;;;;;;15.36;100.00;100687.31;5004960;28;20231;-72
2023/09/08 00:42:36;;;;;;;8.53;6.60;;;;;;;15.36;100.00;100676.63;5003150;28;20230;-72
2023/09/08 00:45:04;;;;;;;8.70;6.73;;;;;;;15.36;100.00;100685.53;5005109;28;20200;-72
2023/09/08 00:47:30;;;;;;;11.87;7.30;;;;;;;15.23;100.00;100680.22;5004059;28;20306;-72
2023/09/08 00:49:57;;;;;;;10.90;6.83;;;;;;;15.07;100.00;100681.09;5006303;28;20270;-72
2023/09/08 00:52:23;;;;;;;10.80;7.17;;;;;;;15.05;100.00;100681.09;5009198;28;20228;-72
2023/09/08 00:54:50;;;;;;;10.57;7.00;;;;;;;15.10;100.00;100681.09;5008829;28;20207;-73
2023/09/08 00:57:16;;;;;;;9.37;6.80;;;;;;;15.05;100.00;100679.31;5007477;28;20206;-73
2023/09/08 00:59:44;;;;;;;9.80;6.90;;;;;;;15.02;100.00;100689.09;5004428;28;20680;-74
2023/09/08 01:02:10;;;;;;;9.13;6.50;;;;;;;14.91;100.00;100683.78;5009230;28;20715;-72
2023/09/08 01:04:40;;;;;;;7.40;6.10;;;;;;;14.78;100.00;100686.41;4998710;28;20214;-72
2023/09/08 01:07:09;;;;;;;9.10;6.70;;;;;;;14.70;100.00;100686.41;5003272;28;20213;-72
2023/09/08 01:09:36;;;;;;;9.23;6.60;;;;;;;14.90;100.00;100691.78;5001437;28;20702;-72
2023/09/08 01:12:05;;;;;;;10.10;6.70;;;;;;;14.88;100.00;100690.88;4999380;28;20231;-72
2023/09/08 01:14:32;;;;;;;9.77;7.00;;;;;;;14.75;100.00;100689.97;5000408;28;20667;-72
2023/09/08 01:16:58;;;;;;;10.53;6.53;;;;;;;14.62;100.00;100691.72;5005592;28;20208;-72
2023/09/08 01:19:25;;;;;;;9.37;7.20;;;;;;;14.66;100.00;100690.84;5002725;28;20264;-74
2023/09/08 01:22:22;;;;;;;10.50;6.87;;;;;;;14.74;100.00;100694.41;5002416;28;20211;-72
2023/09/08 01:25:06;;;;;;;10.83;6.57;;;;;;;14.69;100.00;100692.63;4994903;28;20225;-73
2023/09/08 01:27:35;;;;;;;9.77;7.40;;;;;;;14.59;100.00;100690.84;4997344;28;20238;-72
2023/09/08 01:30:04;;;;;;;9.80;7.13;;;;;;;14.51;100.00;100690.81;5005849;28;20303;-73
2023/09/08 01:32:31;;;;;;;9.93;7.30;;;;;;;14.49;100.00;100697.03;5011131;28;20249;-72
2023/09/08 01:34:59;;;;;;;10.20;7.40;;;;;;;14.62;100.00;100696.16;5000520;28;20208;-72
2023/09/08 01:37:26;;;;;;;11.17;8.10;;;;;;;14.64;100.00;100697.06;5001961;28;20210;-75
2023/09/08 01:39:52;;;;;;;10.23;7.23;;;;;;;14.53;100.00;100697.03;5003351;28;20207;-72
2023/09/08 01:42:19;;;;;;;10.50;7.83;;;;;;;14.48;100.00;100692.59;5015303;28;20713;-74
2023/09/08 01:44:45;;;;;;;9.53;7.60;;;;;;;14.36;100.00;100688.97;4999905;28;21208;-73
2023/09/08 01:47:11;;;;;;;10.27;7.70;;;;;;;14.44;100.00;100690.81;5005333;28;20196;-73
2023/09/08 01:49:38;;;;;;;11.70;7.70;;;;;;;14.35;100.00;100686.28;5001789;28;20215;-72
2023/09/08 01:52:05;;;;;;;12.03;8.40;;;;;;;14.27;100.00;100690.72;4995256;28;20614;-74
2023/09/08 01:54:31;;;;;;;10.80;8.37;;;;;;;14.20;100.00;100696.91;4997873;28;20200;-74
2023/09/08 01:56:57;;;;;;;11.37;7.47;;;;;;;14.14;100.00;100686.25;5005733;28;20200;-74
2023/09/08 01:59:24;;;;;;;16.47;7.87;;;;;;;14.11;100.00;100692.44;5003982;28;20291;-76
2023/09/08 02:01:50;;;;;;;11.37;7.90;;;;;;;14.12;100.00;100686.22;5015614;28;20224;-73
2023/09/08 02:04:17;;;;;;;10.33;7.43;;;;;;;14.07;100.00;100696.88;4996482;28;20201;-75
2023/09/08 02:06:43;;;;;;;10.83;8.10;;;;;;;14.18;100.00;100683.59;5003277;28;20200;-74
2023/09/08 02:09:13;;;;;;;12.03;8.50;;;;;;;14.20;100.00;100691.59;5003350;28;20200;-75
2023/09/08 02:11:40;;;;;;;12.00;7.93;;;;;;;14.17;100.00;100688.91;5003699;28;20302;-74
2023/09/08 02:14:06;;;;;;;12.30;8.43;;;;;;;14.24;100.00;100688.03;5000850;28;20227;-72
2023/09/08 02:16:33;;;;;;;12.60;8.20;;;;;;;14.24;100.00;100688.03;4999660;28;20200;-73
2023/09/08 02:18:59;;;;;;;10.93;8.17;;;;;;;14.26;100.00;100681.81;5004000;28;20690;-74
2023/09/08 02:21:26;;;;;;;14.23;8.63;;;;;;;14.25;100.00;100685.38;5003716;28;20204;-73
2023/09/08 02:23:52;;;;;;;12.67;8.50;;;;;;;14.13;100.00;100681.78;5000442;28;20232;-72
2023/09/08 02:26:18;;;;;;;10.43;8.10;;;;;;;14.03;100.00;100686.19;4999279;28;20213;-72
2023/09/08 02:28:45;;;;;;;11.27;8.13;;;;;;;13.99;100.00;100693.25;4996391;28;20207;-73
2023/09/08 02:31:11;;;;;;;13.83;8.73;;;;;;;13.98;100.00;100688.81;5000810;28;20220;-72
2023/09/08 02:33:38;;;;;;;13.67;8.97;;;;;;;14.06;100.00;100688.88;4999697;28;20410;-73
2023/09/08 02:36:05;;;;;;;10.93;8.97;;;;;;;14.03;100.00;100687.09;5003836;28;20223;-74
2023/09/08 02:38:32;;;;;;;12.80;8.80;;;;;;;13.98;100.00;100683.50;5017081;28;20200;-72
2023/09/08 02:40:59;;;;;;;12.90;8.93;;;;;;;13.95;100.00;100685.25;5002486;28;20199;-73
2023/09/08 02:43:27;;;;;;;14.23;8.80;;;;;;;13.95;100.00;100685.25;5004943;28;20613;-72
2023/09/08 02:45:53;;;;;;;12.23;8.17;;;;;;;13.95;100.00;100686.16;5008457;28;20211;-72
2023/09/08 02:48:20;;;;;;;13.13;8.63;;;;;;;13.95;100.00;100694.13;5001200;28;20201;-72
2023/09/08 02:50:46;;;;;;;11.93;8.33;;;;;;;13.88;100.00;100687.00;5004502;28;20254;-73
2023/09/08 02:53:12;;;;;;;11.93;9.00;;;;;;;13.85;100.00;100689.66;5019066;28;20224;-72
2023/09/08 02:55:39;;;;;;;11.27;8.57;;;;;;;13.77;100.00;100684.31;5001691;28;20581;-72
2023/09/08 02:58:05;;;;;;;11.30;8.53;;;;;;;13.82;100.00;100697.63;5005430;28;20227;-73
2023/09/08 03:00:32;;;;;;;13.03;8.10;;;;;;;13.76;100.00;100694.94;4999359;28;20688;-74
2023/09/08 03:02:58;;;;;;;10.90;8.27;;;;;;;13.85;100.00;100696.75;4996718;28;20224;-73
2023/09/08 03:05:25;;;;;;;12.77;8.33;;;;;;;13.90;100.00;100692.34;5015258;28;20212;-72
2023/09/08 03:07:51;;;;;;;10.70;7.83;;;;;;;13.83;100.00;100688.75;5002855;28;20287;-72
2023/09/08 03:10:18;;;;;;;11.47;8.50;;;;;;;13.85;100.00;100688.75;5003045;28;20223;-73
2023/09/08 03:12:44;;;;;;;11.97;8.80;;;;;;;13.88;100.00;100696.75;5004287;28;20231;-73
2023/09/08 03:15:11;;;;;;;11.27;8.73;;;;;;;13.90;100.00;100695.88;4997236;28;20610;-73
2023/09/08 03:17:37;;;;;;;13.07;9.03;;;;;;;13.93;100.00;100697.69;5021700;28;20286;-74
2023/09/08 03:20:07;;;;;;;15.20;8.73;;;;;;;13.88;100.00;100696.75;5002727;28;20215;-73
2023/09/08 03:22:33;;;;;;;15.03;9.20;;;;;;;13.84;100.00;100689.66;5004110;28;20246;-72
2023/09/08 03:25:00;;;;;;;13.33;8.37;;;;;;;13.83;100.00;100688.75;5004008;28;20212;-74
2023/09/08 03:27:26;;;;;;;12.73;8.63;;;;;;;13.83;100.00;100694.09;5000015;28;20624;-73
2023/09/08 03:29:52;;;;;;;12.57;8.20;;;;;;;13.86;100.00;100687.88;5002660;28;20211;-73
2023/09/08 03:32:19;;;;;;;13.30;9.00;;;;;;;13.75;100.00;100686.06;4996383;28;20224;-72
2023/09/08 03:34:45;;;;;;;13.73;9.40;;;;;;;13.76;100.00;100681.63;5000587;28;20286;-75
2023/09/08 03:37:12;;;;;;;13.43;9.27;;;;;;;13.75;100.00;100687.84;5004504;28;20581;-73
2023/09/08 03:39:38;;;;;;;12.17;8.83;;;;;;;13.65;100.00;100681.59;5016013;28;20204;-74
2023/09/08 03:42:05;;;;;;;14.60;8.97;;;;;;;13.62;100.00;100686.88;5000581;28;20220;-72
2023/09/08 03:44:31;;;;;;;12.77;8.97;;;;;;;13.56;100.00;100678.84;5004982;28;20751;-74
2023/09/08 03:46:57;;;;;;;13.90;9.37;;;;;;;13.70;100.00;100679.84;5002297;28;20250;-72
2023/09/08 03:49:27;;;;;;;12.47;9.17;;;;;;;13.66;100.00;100683.38;5005002;28;20727;-73
2023/09/08 03:51:53;;;;;;;13.53;9.13;;;;;;;13.58;100.00;100674.41;5004254;28;20232;-72
2023/09/08 03:54:20;;;;;;;12.77;9.13;;;;;;;13.63;100.00;100685.13;5002062;28;20626;-74
2023/09/08 03:56:46;;;;;;;13.27;9.23;;;;;;;13.66;100.00;100688.69;5003346;28;20208;-73
2023/09/08 03:59:13;;;;;;;13.87;8.53;;;;;;;13.60;100.00;100685.06;5000929;28;20207;-72
2023/09/08 04:01:39;;;;;;;13.70;10.23;;;;;;;13.55;100.00;100681.50;4997887;28;20201;-74
2023/09/08 04:04:05;;;;;;;11.37;8.50;;;;;;;13.52;100.00;100685.03;5002184;28;20216;-74
2023/09/08 04:06:32;;;;;;;13.93;9.30;;;;;;;13.52;100.00;100687.69;5013569;28;20208;-74
2023/09/08 04:08:59;;;;;;;13.87;9.13;;;;;;;13.54;100.00;100701.00;4994647;28;20745;-73
2023/09/08 04:11:25;;;;;;;13.67;9.23;;;;;;;13.45;100.00;100704.50;4994079;28;20207;-72
2023/09/08 04:13:52;;;;;;;12.60;9.20;;;;;;;13.40;100.00;100696.50;5007704;28;20222;-74
2023/09/08 04:16:18;;;;;;;13.50;9.63;;;;;;;13.39;100.00;100696.47;5000618;28;20204;-73
2023/09/08 04:18:45;;;;;;;14.23;9.80;;;;;;;13.43;100.00;100703.59;5001966;28;20204;-73
2023/09/08 04:21:11;;;;;;;14.83;9.70;;;;;;;13.38;100.00;100698.25;5006218;28;20207;-71
2023/09/08 04:23:38;;;;;;;13.83;9.50;;;;;;;13.39;100.00;100705.34;5004140;28;20700;-72
2023/09/08 04:26:04;;;;;;;12.93;9.80;;;;;;;13.37;100.00;100706.22;5007976;28;20356;-72
2023/09/08 04:28:30;;;;;;;15.73;10.10;;;;;;;13.38;100.00;100705.34;5001213;28;20743;-71
2023/09/08 04:30:57;;;;;;;14.67;10.10;;;;;;;13.36;100.00;100709.78;5001869;28;20215;-73
2023/09/08 04:33:24;;;;;;;16.77;10.43;;;;;;;13.42;100.00;100700.06;4997107;28;20224;-72
2023/09/08 04:35:50;;;;;;;14.50;9.77;;;;;;;13.51;100.00;100711.63;5001554;28;20204;-73
2023/09/08 04:38:17;;;;;;;13.77;10.23;;;;;;;13.55;100.00;100708.09;4995435;28;20291;-73
2023/09/08 04:40:45;;;;;;;14.93;10.27;;;;;;;13.54;100.00;100709.88;5001472;28;20209;-72
2023/09/08 04:43:12;;;;;;;14.80;9.83;;;;;;;13.46;100.00;100706.28;5004141;28;20270;-72
2023/09/08 04:45:38;;;;;;;14.60;10.50;;;;;;;13.42;100.00;100713.34;5003134;28;20200;-73
2023/09/08 04:48:05;;;;;;;14.90;10.20;;;;;;;13.46;100.00;100709.84;5007961;28;20232;-72
2023/09/08 04:50:32;;;;;;;15.60;9.73;;;;;;;13.42;100.00;100716.00;5001789;28;20212;-73
2023/09/08 04:52:58;;;;;;;13.83;10.97;;;;;;;13.43;100.00;100708.94;5023997;28;20216;-71
2023/09/08 04:55:25;;;;;;;16.53;10.60;;;;;;;13.37;100.00;100717.75;5003835;28;20201;-73
2023/09/08 04:57:51;;;;;;;13.10;9.17;;;;;;;13.39;100.00;100718.66;5002575;28;20212;-73
2023/09/08 05:00:18;;;;;;;13.30;9.40;;;;;;;13.33;100.00;100720.38;5007678;28;20461;-73
2023/09/08 05:02:44;;;;;;;15.57;10.00;;;;;;;13.26;100.00;100724.78;5002917;28;20705;-72
2023/09/08 05:05:11;;;;;;;15.23;10.20;;;;;;;13.37;100.00;100719.53;4996802;28;20201;-73
2023/09/08 05:07:37;;;;;;;14.00;9.77;;;;;;;13.33;100.00;100726.59;5003960;28;20200;-74
2023/09/08 05:10:04;;;;;;;14.33;10.20;;;;;;;13.32;100.00;100726.59;5005515;28;20204;-73
2023/09/08 05:12:31;;;;;;;13.47;9.60;;;;;;;13.31;100.00;100722.16;5010676;28;20668;-73
2023/09/08 05:15:05;;;;;;;17.67;11.07;;;;;;;13.39;100.00;100723.09;5021988;28;20295;-72
2023/09/08 05:17:32;;;;;;;14.73;10.10;;;;;;;13.51;100.00;100723.16;5019500;28;20204;-72
2023/09/08 05:19:58;;;;;;;18.40;10.33;;;;;;;13.65;100.00;100725.94;5003811;28;20207;-73
2023/09/08 05:22:24;;;;;;;17.23;11.63;;;;;;;13.79;100.00;100721.56;4998487;28;20232;-74
2023/09/08 05:24:51;;;;;;;14.50;10.73;;;;;;;13.73;100.00;100727.75;4995647;28;20291;-73
2023/09/08 05:27:18;;;;;;;17.07;10.53;;;;;;;13.77;100.00;100729.56;5000152;28;20207;-71
2023/09/08 05:29:44;;;;;;;18.97;11.40;;;;;;;13.76;100.00;100729.53;5005339;28;21626;-73
2023/09/08 05:32:11;;;;;;;17.47;11.37;;;;;;;13.86;100.00;100727.81;4999666;28;20228;-71
2023/09/08 05:34:37;;;;;;;15.50;11.80;;;;;;;13.96;100.00;100734.97;5002006;28;20572;-72
2023/09/08 05:37:03;;;;;;;21.27;11.90;;;;;;;14.10;100.00;100734.16;5018224;28;20679;-73
2023/09/08 05:39:30;;;;;;;16.03;11.17;;;;;;;14.13;100.00;100737.72;5005104;28;20622;-73
2023/09/08 05:41:56;;;;;;;19.27;11.80;;;;;;;14.21;100.00;100730.66;5002647;28;20576;-72
2023/09/08 05:44:25;;;;;;;16.70;11.77;;;;;;;14.26;100.00;100740.44;4996381;28;20213;-73
2023/09/08 05:46:51;;;;;;;16.77;11.80;;;;;;;14.29;100.00;100739.56;5002469;28;20664;-72
2023/09/08 05:49:17;;;;;;;17.93;11.63;;;;;;;14.36;100.00;100741.34;4998494;28;20232;-73
2023/09/08 05:51:44;;;;;;;15.43;10.37;;;;;;;14.35;100.00;100732.47;5004261;28;20692;-72
2023/09/08 05:54:11;;;;;;;16.80;11.33;;;;;;;14.39;100.00;100738.69;4998546;28;20235;-71
2023/09/08 05:56:38;;;;;;;18.13;11.53;;;;;;;14.37;100.00;100743.13;4994349;28;20204;-71
2023/09/08 05:59:04;;;;;;;15.20;11.33;;;;;;;14.40;100.00;100743.16;5006674;28;20698;-73
2023/09/08 06:01:32;;;;;;;18.37;11.97;;;;;;;14.51;100.00;100751.22;5000030;28;20641;-73
2023/09/08 06:03:58;;;;;;;18.33;11.50;;;;;;;14.57;100.00;100748.59;4995461;28;20200;-73
2023/09/08 06:06:26;;;;;;;20.70;12.70;;;;;;;14.58;100.00;100745.91;5001311;28;20219;-70
2023/09/08 06:08:52;;;;;;;18.17;12.10;;;;;;;14.65;100.00;100750.38;5002413;28;20278;-71
2023/09/08 06:11:19;;;;;;;17.27;11.87;;;;;;;14.69;100.00;100743.28;4998521;28;20204;-71
2023/09/08 06:13:45;;;;;;;18.20;11.43;;;;;;;14.82;100.00;100741.53;5003762;28;20225;-71
2023/09/08 06:16:11;;;;;;;19.13;11.80;;;;;;;14.89;100.00;100748.66;5001192;28;20758;-71
2023/09/08 06:18:41;;;;;;;15.77;10.90;;;;;;;14.92;100.00;100754.00;4996382;28;20197;-71
2023/09/08 06:21:07;;;;;;;15.87;11.50;;;;;;;14.96;100.00;100743.34;5003305;28;20200;-71
2023/09/08 06:23:35;;;;;;;16.33;11.93;;;;;;;15.13;100.00;100742.44;5002298;28;20318;-71
2023/09/08 06:26:03;;;;;;;15.77;11.80;;;;;;;15.21;100.00;100746.91;5004162;28;20213;-71
2023/09/08 06:28:30;;;;;;;18.70;12.33;;;;;;;15.31;100.00;100743.34;5003393;28;20679;-71
2023/09/08 06:30:56;;;;;;;18.73;11.97;;;;;;;15.62;100.00;100743.38;4999537;28;20211;-71
2023/09/08 06:33:23;;;;;;;17.57;11.97;;;;;;;15.70;100.00;100748.69;5011217;28;20228;-71
2023/09/08 06:35:50;;;;;;;14.83;11.87;;;;;;;15.95;100.00;100751.28;5005299;28;20196;-71
2023/09/08 06:38:16;;;;;;;18.57;12.50;;;;;;;16.10;100.00;100747.69;5003221;28;20204;-71
2023/09/08 06:40:42;;;;;;;15.43;11.33;;;;;;;16.16;100.00;100760.13;5000644;28;20238;-71
2023/09/08 06:43:09;;;;;;;16.00;11.93;;;;;;;16.34;100.00;100749.38;4998113;28;20708;-71
2023/09/08 06:45:38;;;;;;;16.43;11.10;;;;;;;16.41;100.00;100747.53;5004684;28;20268;-71
2023/09/08 06:48:05;;;;;;;17.93;10.93;;;;;;;16.50;100.00;100752.88;5005021;28;20300;-71
2023/09/08 06:50:32;;;;;;;14.30;10.67;;;;;;;16.57;100.00;100754.63;5001179;28;20259;-72
2023/09/08 06:53:00;;;;;;;16.50;10.43;;;;;;;16.70;100.00;100759.03;4998303;28;20216;-72
2023/09/08 06:55:26;;;;;;;15.23;10.40;;;;;;;16.82;100.00;100750.06;5007964;28;20213;-72
2023/09/08 06:57:53;;;;;;;14.13;9.70;;;;;;;16.90;100.00;100753.56;5006721;28;20204;-72
2023/09/08 07:00:20;;;;;;;12.03;9.70;;;;;;;17.10;100.00;100745.38;5005101;28;20291;-72
2023/09/08 07:02:46;;;;;;;14.30;8.93;;;;;;;17.38;100.00;100741.59;4996238;28;20220;-71
2023/09/08 07:05:13;;;;;;;15.80;8.87;;;;;;;18.14;100.00;100735.47;5003756;28;20200;-71
2023/09/08 07:07:40;;;;;;;15.40;8.40;;;;;;;18.75;100.00;100739.16;4999572;28;21368;-72
2023/09/08 07:10:09;;;;;;;15.43;9.30;;;;;;;19.00;100.00;100740.59;4999106;28;20586;-72
2023/09/08 07:12:36;;;;;;;15.33;8.90;;;;;;;19.91;100.00;100742.63;5014153;28;20586;-72
2023/09/08 07:15:02;;;;;;;13.30;8.37;;;;;;;20.69;100.00;100741.03;4996185;28;20658;-72
2023/09/08 07:17:29;;;;;;;11.90;7.97;;;;;;;21.47;100.00;100738.25;5003443;28;20206;-71
2023/09/08 07:19:55;;;;;;;14.43;7.70;;;;;;;22.30;100.00;100738.72;5001284;28;20227;-71
2023/09/08 07:22:22;;;;;;;11.13;7.07;;;;;;;23.07;100.00;100732.78;5001237;28;20220;-72
2023/09/08 07:24:48;;;;;;;9.07;6.32;;;;;;;23.43;100.00;100733.38;5000119;28;20520;-71
2023/09/08 07:27:15;;;;;;;11.43;6.47;;;;;;;23.55;100.00;100742.88;5002507;28;20691;-72
2023/09/08 07:29:41;;;;;;;9.60;5.37;;;;;;;23.47;100.00;100742.25;4999062;28;20590;-71
2023/09/08 07:32:08;;;;;;;9.55;5.72;;;;;;;23.50;100.00;100750.25;5000582;28;20228;-71
2023/09/08 07:34:34;;;;;;;11.23;5.47;;;;;;;23.49;100.00;100751.19;5017310;28;20205;-72
2023/09/08 07:37:01;;;;;;;12.98;5.95;;;;;;;23.28;100.00;100755.53;4999917;28;20571;-72
2023/09/08 07:39:27;;;;;;;8.07;5.13;;;;;;;23.04;100.00;100759.88;5000047;28;20739;-71
2023/09/08 07:41:56;;;;;;;8.25;5.85;;;;;;;22.68;100.00;100753.78;4999204;28;20235;-71
2023/09/08 07:44:26;;;;;;;8.63;5.55;;;;;;;22.45;100.00;100752.69;5004015;28;20288;-71
2023/09/08 07:46:55;;;;;;;11.40;5.47;;;;;;;22.18;100.00;100745.38;4998830;28;20210;-71
2023/09/08 07:49:21;;;;;;;9.88;5.55;;;;;;;22.11;100.00;100752.75;4999407;28;20212;-71
2023/09/08 07:51:48;;;;;;;9.65;5.47;;;;;;;22.20;100.00;100755.19;4997711;28;20215;-71
2023/09/08 07:54:14;;;;;;;8.45;5.72;;;;;;;22.31;100.00;100754.88;5019738;28;20223;-71
2023/09/08 07:56:40;;;;;;;8.23;5.15;;;;;;;22.33;100.00;100754.81;5000711;28;20499;-71
2023/09/08 07:59:07;;;;;;;8.65;5.63;;;;;;;22.35;100.00;100753.84;5009435;28;20210;-72
2023/09/08 08:01:33;;;;;;;7.43;5.20;;;;;;;22.30;100.00;100760.31;5004143;28;20200;-71
2023/09/08 08:04:03;;;;;;;6.93;5.40;;;;;;;22.27;100.00;100761.28;5005738;28;20192;-72
2023/09/08 08:06:30;;;;;;;7.60;5.30;;;;;;;22.31;100.00;100754.00;4997712;28;20200;-71
2023/09/08 08:08:56;;;;;;;8.45;5.80;;;;;;;22.36;100.00;100760.13;5004477;28;20213;-71
2023/09/08 08:11:26;;;;;;;7.07;5.40;;;;;;;22.44;100.00;100758.13;4997179;28;20204;-71
2023/09/08 08:13:52;;;;;;;8.38;5.03;;;;;;;22.49;100.00;100753.47;5001854;28;20275;-71
2023/09/08 08:16:21;;;;;;;9.18;5.30;;;;;;;22.57;100.00;100750.53;5010163;28;20294;-70
2023/09/08 08:18:48;;;;;;;6.78;5.45;;;;;;;22.70;100.00;100752.81;5002754;28;20206;-70
2023/09/08 08:21:15;;;;;;;8.52;5.18;;;;;;;22.88;100.00;100753.22;4991793;28;20255;-70
2023/09/08 08:23:41;;;;;;;10.80;5.53;;;;;;;22.93;100.00;100759.34;5001238;28;20227;-70
2023/09/08 08:26:08;;;;;;;11.18;5.75;;;;;;;23.05;100.00;100756.25;4994198;28;20228;-70
2023/09/08 08:28:34;;;;;;;9.20;5.88;;;;;;;23.24;100.00;100751.16;4995066;28;20212;-70
2023/09/08 08:31:01;;;;;;;8.98;5.43;;;;;;;23.39;99.03;100743.41;4993817;28;20197;-70
2023/09/08 08:33:29;;;;;;;14.45;5.80;;;;;;;23.57;95.38;100749.16;5004261;28;21740;-70
2023/09/08 08:35:55;;;;;;;8.43;6.30;;;;;;;23.66;94.62;100746.16;5005506;28;20207;-70
2023/09/08 08:38:22;;;;;;;8.63;5.60;;;;;;;23.74;93.06;100747.63;5007517;28;20295;-71
2023/09/08 08:40:48;;;;;;;9.77;5.57;;;;;;;23.83;93.90;100750.94;5001071;28;20304;-71
2023/09/08 08:43:14;;;;;;;12.02;5.72;;;;;;;23.79;91.86;100750.19;5011694;28;20217;-70
2023/09/08 08:45:43;;;;;;;9.73;5.80;;;;;;;23.62;90.23;100742.66;5010381;28;20208;-70
2023/09/08 08:48:10;;;;;;;8.35;5.43;;;;;;;23.53;93.07;100752.84;4996344;28;20212;-70
2023/09/08 08:50:38;;;;;;;9.13;5.85;;;;;;;23.68;94.61;100746.97;5003509;28;20243;-70
2023/09/08 08:53:05;;;;;;;11.63;5.88;;;;;;;23.60;93.46;100751.75;5001495;28;20676;-69
2023/09/08 08:55:31;;;;;;;10.55;5.57;;;;;;;23.65;93.55;100749.78;5003340;28;20212;-70
2023/09/08 08:58:04;;;;;;;8.68;5.65;;;;;;;23.75;96.09;100745.81;5005858;28;20211;-69
2023/09/08 09:00:34;;;;;;;10.65;5.68;;;;;;;23.93;92.38;100736.16;4995687;28;20216;-69
2023/09/08 09:03:03;;;;;;;10.63;5.90;;;;;;;24.02;84.15;100739.44;5001953;28;20239;-70
2023/09/08 09:05:41;;;;;;;8.85;5.45;;;;;;;24.08;77.62;100737.44;5002931;28;20295;-70
2023/09/08 09:08:14;;;;;;;7.22;5.60;;;;;;;24.28;74.65;100741.19;5001888;28;20559;-70
2023/09/08 09:10:41;;;;;;;8.82;6.25;;;;;;;24.48;72.04;100742.28;5002784;28;20206;-70
2023/09/08 09:13:07;;;;;;;7.28;5.55;;;;;;;24.58;68.90;100739.16;5002690;28;20702;-70
2023/09/08 09:15:33;;;;;;;6.93;5.13;;;;;;;24.72;67.61;100743.13;4999030;28;20223;-70
2023/09/08 09:18:07;;;;;;;11.35;5.70;;;;;;;24.85;66.78;100742.59;5004798;28;20201;-70
2023/09/08 09:20:34;;;;;;;11.82;5.60;;;;;;;24.92;67.01;100743.25;5001588;28;20227;-69
2023/09/08 09:23:01;;;;;;;8.38;5.45;;;;;;;25.02;65.27;100746.50;5003471;28;20267;-70
2023/09/08 09:25:30;;;;;;;8.52;5.97;;;;;;;25.17;65.32;100737.72;4997914;28;20200;-70
2023/09/08 09:27:59;;;;;;;9.80;5.90;;;;;;;25.36;65.45;100737.84;5002396;28;20201;-70
2023/09/08 09:30:27;;;;;;;11.98;5.60;;;;;;;25.54;62.94;100740.66;5000955;28;20228;-71
2023/09/08 09:33:04;;;;;;;9.05;5.97;;;;;;;25.63;62.74;100731.25;4998874;28;20228;-69
2023/09/08 09:35:42;;;;;;;9.52;5.70;;;;;;;25.52;62.76;100741.66;5005484;28;20699;-70
2023/09/08 09:38:09;;;;;;;8.63;5.85;;;;;;;25.48;61.82;100742.75;4997862;28;20310;-69
2023/09/08 09:40:37;;;;;;;10.70;5.82;;;;;;;25.37;61.77;100739.63;4996438;28;20210;-70
2023/09/08 09:43:05;;;;;;;7.18;5.88;;;;;;;25.47;62.20;100738.28;5014491;28;20601;-71
2023/09/08 09:45:35;;;;;;;9.30;5.47;;;;;;;25.59;63.88;100738.63;5003690;28;20271;-71
2023/09/08 09:48:04;;;;;;;10.52;5.07;;;;;;;25.78;62.72;100735.16;5002055;28;20204;-70
2023/09/08 09:50:33;;;;;;;7.38;5.18;;;;;;;26.01;61.70;100734.13;4999751;28;20283;-70
2023/09/08 09:53:01;;;;;;;13.10;5.90;;;;;;;26.15;60.58;100727.16;5004189;28;20251;-70
2023/09/08 09:55:28;;;;;;;13.90;5.47;;;;;;;26.31;61.65;100735.44;4997488;28;20258;-70
2023/09/08 09:58:03;;;;;;;9.98;6.40;;;;;;;26.39;60.40;100727.88;5000481;28;20216;-71
2023/09/08 10:00:32;;;;;;;11.85;5.53;;;;;;;26.51;59.02;100721.00;5012673;28;20718;-70
2023/09/08 10:03:00;;;;;;;10.68;5.30;;;;;;;26.62;59.02;100724.06;4997951;28;20291;-70
2023/09/08 10:05:27;;;;;;;8.02;5.72;;;;;;;26.60;57.64;100722.38;4999239;28;20211;-70
2023/09/08 10:07:53;;;;;;;8.88;5.43;;;;;;;26.55;58.63;100714.47;5000433;28;20206;-70
2023/09/08 10:10:21;;;;;;;9.50;4.95;;;;;;;26.64;59.55;100721.28;5007009;28;20292;-70
2023/09/08 10:12:57;;;;;;;10.27;5.30;;;;;;;26.70;57.12;100718.28;4998089;28;20235;-70
2023/09/08 10:15:24;;;;;;;6.65;5.28;;;;;;;26.67;56.89;100718.41;5002352;28;20238;-70
2023/09/08 10:17:57;;;;;;;7.82;5.57;;;;;;;26.54;56.22;100710.88;5004807;28;20196;-70
2023/09/08 10:20:24;;;;;;;11.77;5.60;;;;;;;26.53;58.24;100708.22;5004821;28;20251;-70
2023/09/08 10:25:53;;;;;;;8.77;5.68;;;;;;;26.72;59.23;100700.94;4999188;28;20209;-70
2023/09/08 10:28:22;;;;;;;9.35;5.53;;;;;;;26.92;57.28;100699.09;5004544;28;20205;-70
2023/09/08 10:30:50;;;;;;;13.20;5.45;;;;;;;27.08;56.46;100698.28;5000001;28;20250;-70
2023/09/08 10:33:17;;;;;;;10.32;5.57;;;;;;;27.33;54.89;100702.50;4999525;28;20633;-71
2023/09/08 10:35:45;;;;;;;12.98;5.60;;;;;;;27.42;54.79;100692.03;5004539;28;20629;-71
2023/09/08 10:38:49;;;;;;;9.85;5.40;;;;;;;27.42;53.46;100692.03;4996245;28;20542;-70
2023/09/08 10:41:19;;;;;;;11.27;5.50;;;;;;;27.56;54.98;100695.84;4952873;28;20204;-70
2023/09/08 10:43:46;;;;;;;6.25;4.95;;;;;;;27.60;54.35;100687.44;4989325;28;20219;-69
2023/09/08 10:46:25;;;;;;;8.10;5.50;;;;;;;27.70;54.80;100683.34;5001705;28;20240;-70
2023/09/08 10:49:00;;;;;;;11.77;5.85;;;;;;;27.90;53.17;100685.00;5000713;28;20685;-70
2023/09/08 10:51:26;;;;;;;7.63;5.30;;;;;;;28.02;52.54;100687.06;5000720;28;20718;-70
2023/09/08 10:53:53;;;;;;;6.53;5.03;;;;;;;28.01;51.10;100685.28;4998773;28;20304;-70
2023/09/08 10:56:19;;;;;;;10.43;5.35;;;;;;;28.02;51.86;100689.78;5001982;28;20270;-70
2023/09/08 10:58:51;;;;;;;10.70;5.15;;;;;;;28.22;52.01;100683.25;5005148;28;20583;-69
2023/09/08 11:01:26;;;;;;;10.13;5.10;;;;;;;28.30;50.41;100688.28;4998695;28;20256;-70
2023/09/08 11:03:53;;;;;;;10.25;5.28;;;;;;;28.45;50.19;100690.19;5002507;28;20562;-70
2023/09/08 11:06:30;;;;;;;5.90;4.97;;;;;;;28.60;49.48;100689.31;4992624;28;20220;-71
2023/09/08 11:09:06;;;;;;;8.45;5.88;;;;;;;28.77;49.78;100674.72;5019819;28;20549;-71
2023/09/08 11:11:33;;;;;;;11.65;5.57;;;;;;;28.86;49.38;100679.69;5002071;28;20203;-69
2023/09/08 11:14:00;;;;;;;10.45;5.30;;;;;;;28.90;49.04;100675.81;5001208;28;20274;-70
2023/09/08 11:16:31;;;;;;;11.55;5.25;;;;;;;28.70;48.77;100673.31;4999042;28;20208;-74